createdAt,value
2023-04-02T00:02:25.529Z,-145.47
2023-04-02T00:08:29.459Z,-145.47
2023-04-02T00:14:36.175Z,-145.47
2023-04-02T00:20:42.000Z,-145.47
2023-04-02T00:26:44.317Z,-145.47
2023-04-02T00:32:47.843Z,-145.47
2023-04-02T00:38:48.988Z,-145.47
2023-04-02T00:44:51.156Z,-145.47
2023-04-02T00:50:56.630Z,-145.47
2023-04-02T00:56:58.441Z,-145.47
2023-04-02T01:03:22.922Z,-145.47
2023-04-02T01:09:37.527Z,-145.47
2023-04-02T01:15:43.800Z,-145.47
2023-04-02T01:21:57.642Z,-145.47
2023-04-02T01:27:04.075Z,6.91
2023-04-02T01:32:11.827Z,6.92
2023-04-02T01:37:36.654Z,7.01
2023-04-02T01:43:44.922Z,-145.47
2023-04-02T01:48:48.273Z,6.99
2023-04-02T01:54:48.885Z,-145.47
2023-04-02T02:00:51.965Z,-145.47
2023-04-02T02:06:54.117Z,-145.47
2023-04-02T02:12:59.213Z,-145.47
2023-04-02T02:19:03.707Z,-145.47
2023-04-02T02:25:15.635Z,-145.47
2023-04-02T02:31:22.784Z,-145.47
2023-04-02T02:37:28.216Z,-145.47
2023-04-02T02:43:32.970Z,-145.47
2023-04-02T02:49:36.308Z,-145.47
2023-04-02T02:55:39.882Z,-145.47
2023-04-02T03:01:42.999Z,-145.47
2023-04-02T03:07:47.178Z,-145.47
2023-04-02T03:13:52.002Z,-145.47
2023-04-02T03:20:01.703Z,-145.47
2023-04-02T03:26:07.997Z,-145.47
2023-04-02T03:32:13.257Z,-145.47
2023-04-02T03:38:16.781Z,-145.47
2023-04-02T03:44:22.830Z,-145.47
2023-04-02T03:50:31.089Z,-145.47
2023-04-02T03:56:39.944Z,-145.47
2023-04-02T04:02:43.879Z,-145.47
2023-04-02T04:08:50.399Z,-145.47
2023-04-02T04:14:59.849Z,-145.47
2023-04-02T04:21:04.048Z,-145.47
2023-04-02T04:27:17.131Z,-145.47
2023-04-02T04:33:25.285Z,-145.47
2023-04-02T04:39:34.693Z,-145.47
2023-04-02T04:45:41.907Z,-145.47
2023-04-02T04:51:52.040Z,-145.47
2023-04-02T04:57:56.555Z,-145.47
2023-04-02T05:04:01.522Z,-145.47
2023-04-02T05:10:09.285Z,-145.47
2023-04-02T05:16:16.309Z,-145.47
2023-04-02T05:22:22.943Z,-145.47
2023-04-02T05:28:31.987Z,-145.47
2023-04-02T05:34:35.211Z,-145.47
2023-04-02T05:40:38.216Z,-145.47
2023-04-02T05:46:45.733Z,-145.47
2023-04-02T05:52:51.758Z,-145.47
2023-04-02T05:58:58.087Z,-145.47
2023-04-02T06:05:05.561Z,-145.47
2023-04-02T06:11:11.154Z,-145.47
2023-04-02T06:17:14.305Z,-145.47
2023-04-02T06:23:22.033Z,-145.47
2023-04-02T06:29:28.105Z,-145.47
2023-04-02T06:35:28.937Z,-145.47
2023-04-02T06:41:38.202Z,-145.47
2023-04-02T06:47:42.594Z,-145.47
2023-04-02T06:53:46.634Z,-145.47
2023-04-02T06:59:48.814Z,-145.47
2023-04-02T07:05:49.501Z,-145.47
2023-04-02T07:11:50.468Z,-145.47
2023-04-02T07:17:53.283Z,-145.47
2023-04-02T07:23:54.332Z,-145.47
2023-04-02T07:29:55.270Z,-145.47
2023-04-02T07:35:58.032Z,-145.47
2023-04-02T07:41:05.386Z,4.50
2023-04-02T07:46:07.904Z,4.40
2023-04-02T07:51:17.902Z,4.37
2023-04-02T07:56:19.883Z,4.33
2023-04-02T08:01:24.365Z,4.43
2023-04-02T08:06:27.969Z,4.38
2023-04-02T08:11:31.823Z,4.30
2023-04-02T08:16:44.259Z,4.30
2023-04-02T08:21:50.645Z,4.17
2023-04-02T08:26:54.466Z,4.04
2023-04-02T08:31:56.546Z,4.07
2023-04-02T08:36:59.863Z,4.12
2023-04-02T08:42:07.176Z,4.17
2023-04-02T08:47:10.930Z,3.94
2023-04-02T08:52:23.710Z,3.87
2023-04-02T08:57:36.639Z,3.72
2023-04-02T09:02:43.159Z,3.53
2023-04-02T09:08:36.284Z,-145.47
2023-04-02T09:13:46.379Z,3.24
2023-04-02T09:18:50.170Z,2.88
2023-04-02T09:23:53.478Z,2.98
2023-04-02T09:29:02.473Z,3.00
2023-04-02T09:34:27.214Z,2.83
2023-04-02T09:39:30.528Z,2.83
2023-04-02T09:44:33.111Z,2.71
2023-04-02T09:49:38.641Z,2.88
2023-04-02T09:54:42.675Z,2.65
2023-04-02T09:59:44.845Z,2.34
2023-04-02T10:04:49.457Z,2.23
2023-04-02T10:10:00.120Z,2.27
2023-04-02T10:15:04.477Z,2.39
2023-04-02T10:20:17.610Z,2.27
2023-04-02T10:25:24.537Z,2.38
2023-04-02T10:30:30.566Z,2.87
2023-04-02T10:35:41.270Z,3.10
2023-04-02T10:40:49.091Z,2.82
2023-04-02T10:45:57.516Z,2.63
2023-04-02T10:51:03.496Z,2.71
2023-04-02T10:56:11.745Z,2.94
2023-04-02T11:01:17.575Z,3.06
2023-04-02T11:06:24.574Z,3.04
2023-04-02T11:11:32.033Z,3.16
2023-04-02T11:16:35.569Z,2.98
2023-04-02T11:21:54.806Z,2.88
2023-04-02T11:27:16.042Z,2.84
2023-04-02T11:32:28.952Z,2.81
2023-04-02T11:37:35.303Z,2.69
2023-04-02T11:42:40.877Z,2.60
2023-04-02T11:47:42.936Z,2.70
2023-04-02T11:52:54.985Z,2.64
2023-04-02T11:58:25.491Z,2.72
2023-04-02T12:03:47.905Z,2.73
2023-04-02T12:09:04.937Z,2.61
2023-04-02T12:14:41.331Z,2.64
2023-04-02T12:19:48.212Z,2.59
2023-04-02T12:24:52.590Z,2.58
2023-04-02T12:30:10.281Z,2.61
2023-04-02T12:35:29.442Z,2.60
2023-04-02T12:40:31.523Z,2.48
2023-04-02T12:45:36.557Z,2.39
2023-04-02T12:50:41.742Z,2.42
2023-04-02T12:55:46.917Z,2.44
2023-04-02T13:00:50.796Z,2.45
2023-04-02T13:05:54.121Z,2.56
2023-04-02T13:10:58.928Z,2.65
2023-04-02T13:16:05.992Z,2.67
2023-04-02T13:21:25.425Z,2.69
2023-04-02T13:26:29.238Z,2.66
2023-04-02T13:31:33.331Z,2.54
2023-04-02T13:36:35.588Z,2.53
2023-04-02T13:41:41.332Z,2.61
2023-04-02T13:46:44.648Z,2.66
2023-04-02T13:51:49.335Z,2.57
2023-04-02T13:56:51.946Z,2.52
2023-04-02T14:01:59.412Z,2.52
2023-04-02T14:07:16.998Z,2.47
2023-04-02T14:12:32.234Z,2.49
2023-04-02T14:17:47.596Z,2.55
2023-04-02T14:23:02.770Z,2.62
2023-04-02T14:28:13.800Z,2.66
2023-04-02T14:33:26.254Z,2.46
2023-04-02T14:38:33.766Z,2.43
2023-04-02T14:43:44.341Z,2.34
2023-04-02T14:48:54.323Z,2.41
2023-04-02T14:54:07.204Z,2.42
2023-04-02T14:59:21.756Z,2.45
2023-04-02T15:04:30.938Z,2.51
2023-04-02T15:09:38.710Z,2.57
2023-04-02T15:14:45.478Z,2.55
2023-04-02T15:19:52.401Z,2.52
2023-04-02T15:25:07.744Z,2.43
2023-04-02T15:30:14.924Z,2.31
2023-04-02T15:35:32.823Z,2.21
2023-04-02T15:40:46.545Z,2.20
2023-04-02T15:45:59.032Z,2.20
2023-04-02T15:51:13.424Z,2.14
2023-04-02T15:56:25.196Z,2.14
2023-04-02T16:01:40.905Z,2.12
2023-04-02T16:06:56.510Z,2.14
2023-04-02T16:12:11.270Z,2.15
2023-04-02T16:17:25.085Z,2.11
2023-04-02T16:22:30.604Z,2.05
2023-04-02T16:27:38.181Z,1.99
2023-04-02T16:32:52.614Z,2.00
2023-04-02T16:37:59.697Z,1.98
2023-04-02T16:43:12.061Z,2.00
2023-04-02T16:48:24.897Z,1.99
2023-04-02T16:53:47.834Z,1.91
2023-04-02T16:59:11.836Z,1.99
2023-04-02T17:04:25.649Z,2.00
2023-04-02T17:09:42.879Z,2.04
2023-04-02T17:14:52.746Z,2.00
2023-04-02T17:19:58.686Z,1.95
2023-04-02T17:25:06.999Z,1.95
2023-04-02T17:30:15.440Z,1.92
2023-04-02T17:35:22.776Z,1.92
2023-04-02T17:40:35.075Z,1.89
2023-04-02T17:45:45.627Z,1.76
2023-04-02T17:51:01.599Z,1.76
2023-04-02T17:56:24.663Z,1.73
2023-04-02T18:01:33.370Z,1.71
2023-04-02T18:06:41.673Z,1.75
2023-04-02T18:11:55.668Z,1.71
2023-04-02T18:17:04.382Z,1.71
2023-04-02T18:22:16.289Z,1.65
2023-04-02T18:27:43.750Z,1.57
2023-04-02T18:33:04.348Z,1.55
2023-04-02T18:38:21.392Z,1.50
2023-04-02T18:43:36.178Z,1.29
2023-04-02T18:48:46.351Z,1.26
2023-04-02T18:53:51.695Z,1.34
2023-04-02T18:58:58.244Z,1.43
2023-04-02T19:04:03.875Z,1.51
2023-04-02T19:09:15.059Z,1.44
2023-04-02T19:14:20.499Z,1.30
2023-04-02T19:19:25.045Z,1.25
2023-04-02T19:24:38.783Z,1.26
2023-04-02T19:29:52.638Z,1.26
2023-04-02T19:35:02.704Z,1.32
2023-04-02T19:40:30.330Z,1.31
2023-04-02T19:45:36.335Z,1.37
2023-04-02T19:50:38.708Z,1.44
2023-04-02T19:55:41.510Z,1.42
2023-04-02T20:00:44.873Z,1.39
2023-04-02T20:05:46.944Z,1.41
2023-04-02T20:10:49.034Z,1.43
2023-04-02T20:15:52.458Z,1.46
2023-04-02T20:20:54.920Z,1.46
2023-04-02T20:25:57.679Z,1.45
2023-04-02T20:31:11.706Z,1.51
2023-04-02T20:36:15.670Z,1.48
2023-04-02T20:41:18.223Z,1.47
2023-04-02T20:46:22.382Z,1.49
2023-04-02T20:51:24.483Z,1.50
2023-04-02T20:56:26.783Z,1.45
2023-04-02T21:01:30.851Z,1.48
2023-04-02T21:06:33.960Z,1.48
2023-04-02T21:11:36.682Z,1.48
2023-04-02T21:16:41.334Z,1.41
2023-04-02T21:21:44.799Z,1.45
2023-04-02T21:26:47.111Z,1.33
2023-04-02T21:31:50.789Z,1.29
2023-04-02T21:36:52.769Z,1.23
2023-04-02T21:41:54.986Z,1.23
2023-04-02T21:46:58.327Z,1.31
2023-04-02T21:52:00.391Z,1.35
2023-04-02T21:57:02.430Z,1.38
2023-04-02T22:02:06.798Z,1.40
2023-04-02T22:07:08.772Z,1.30
2023-04-02T22:12:10.932Z,1.34
2023-04-02T22:17:14.272Z,1.36
2023-04-02T22:22:16.239Z,1.35
2023-04-02T22:27:18.240Z,1.40
2023-04-02T22:32:21.573Z,1.40
2023-04-02T22:37:23.684Z,1.22
2023-04-02T22:42:26.682Z,1.22
2023-04-02T22:47:29.982Z,1.27
2023-04-02T22:52:32.033Z,1.28
2023-04-02T22:57:34.267Z,-145.47
2023-04-02T23:02:38.247Z,1.07
2023-04-02T23:07:40.472Z,1.15
2023-04-02T23:12:42.476Z,1.14
2023-04-02T23:17:45.854Z,-145.47
2023-04-02T23:22:47.844Z,-145.47
2023-04-02T23:27:49.803Z,-145.47
2023-04-02T23:32:53.113Z,-145.47
2023-04-02T23:37:55.319Z,-145.47
2023-04-02T23:42:57.289Z,-145.47
2023-04-02T23:48:00.694Z,-145.47
2023-04-02T23:53:02.691Z,-145.47
2023-04-02T23:58:04.740Z,0.81
